Time;durP1;ratioP1;P1;durP2;ratioP2;P2;SDS_P1;SDS_P2;PMS_P1;PMS_P2;Temp;Humidity;BMP_temperature;BMP_pressure;BME280_temperature;BME280_humidity;BME280_pressure;Samples;Min_cycle;Max_cycle;Signal;HPM_P1;HPM_P2
2022/10/17 00:00:41;;;;;;;13.32;9.20;;;;;;;13.49;100.00;100794.56;5049576;28;20481;-74
2022/10/17 00:03:08;;;;;;;13.55;10.18;;;;;;;13.55;100.00;100817.28;5051000;28;20061;-76
2022/10/17 00:05:39;;;;;;;11.23;9.13;;;;;;;13.57;100.00;100820.75;5034497;28;20099;-73
2022/10/17 00:08:06;;;;;;;11.30;9.55;;;;;;;13.57;100.00;100818.06;5049503;28;20044;-75
2022/10/17 00:10:33;;;;;;;12.45;9.77;;;;;;;13.56;100.00;100814.56;5048208;28;20053;-77
2022/10/17 00:13:00;;;;;;;14.10;10.52;;;;;;;13.45;100.00;100808.09;5048844;28;20045;-76
2022/10/17 00:15:26;;;;;;;11.68;9.88;;;;;;;13.51;100.00;100824.59;5050798;28;20049;-75
2022/10/17 00:17:53;;;;;;;14.63;9.65;;;;;;;13.51;100.00;100831.72;5048259;28;20041;-72
2022/10/17 00:20:20;;;;;;;11.15;9.45;;;;;;;13.54;100.00;100827.06;5045571;28;20045;-78
2022/10/17 00:22:46;;;;;;;12.73;8.90;;;;;;;13.57;100.00;100842.88;5044430;28;20049;-75
2022/10/17 00:25:13;;;;;;;11.50;8.43;;;;;;;13.61;100.00;100840.94;5049519;28;20064;-75
2022/10/17 00:27:40;;;;;;;11.43;8.75;;;;;;;13.58;100.00;100836.63;5046970;28;20075;-76
2022/10/17 00:30:11;;;;;;;16.73;9.77;;;;;;;13.38;100.00;100798.72;5046408;28;20056;-78
2022/10/17 00:32:38;;;;;;;10.52;8.57;;;;;;;13.62;100.00;100843.53;5045833;28;20065;-75
2022/10/17 00:35:05;;;;;;;12.38;8.82;;;;;;;13.49;100.00;100818.50;5042037;28;20065;-75
2022/10/17 00:37:32;;;;;;;12.63;9.93;;;;;;;13.59;100.00;100835.69;5049683;28;20834;-77
2022/10/17 00:39:59;;;;;;;12.50;9.00;;;;;;;13.51;100.00;100821.94;5047527;28;20132;-78
2022/10/17 00:42:26;;;;;;;13.77;9.48;;;;;;;13.61;100.00;100836.47;5044338;28;20049;-79
2022/10/17 00:44:59;;;;;;;15.95;9.55;;;;;;;13.56;100.00;100840.31;5048647;28;20874;-80
2022/10/17 00:47:27;;;;;;;12.25;9.55;;;;;;;13.52;100.00;100834.31;5047338;28;20056;-79
2022/10/17 00:49:54;;;;;;;11.35;9.90;;;;;;;13.56;100.00;100848.28;5044177;28;20045;-80
2022/10/17 00:52:25;;;;;;;12.45;9.30;;;;;;;13.53;100.00;100852.00;5047102;28;20507;-76
2022/10/17 00:55:28;;;;;;;13.07;9.00;;;;;;;13.51;100.00;100850.34;5047357;28;20049;-78
2022/10/17 00:57:56;;;;;;;11.30;8.93;;;;;;;13.43;100.00;100834.75;5029262;28;20057;-80
2022/10/17 01:00:23;;;;;;;11.52;9.38;;;;;;;13.47;100.00;100854.97;5040818;28;20052;-76
2022/10/17 01:02:50;;;;;;;12.63;8.98;;;;;;;13.33;100.00;100829.06;5053192;28;20083;-80
2022/10/17 01:05:17;;;;;;;11.40;8.93;;;;;;;13.46;100.00;100858.56;5060712;28;20059;-72
2022/10/17 01:07:46;;;;;;;9.68;8.68;;;;;;;13.48;100.00;100855.81;5052558;28;20120;-75
2022/10/17 01:10:13;;;;;;;12.82;8.73;;;;;;;13.48;100.00;100856.69;5042574;28;20045;-75
2022/10/17 01:12:51;;;;;;;11.13;8.73;;;;;;;13.44;100.00;100857.78;5044803;28;20053;-77
2022/10/17 01:16:02;;;;;;;14.50;9.00;;;;;;;13.35;100.00;100839.63;5044252;28;20563;-74
2022/10/17 01:18:53;;;;;;;11.80;8.20;;;;;;;13.46;100.00;100855.03;4953769;28;20052;-78
2022/10/17 01:21:20;;;;;;;;;;;;;;;13.46;100.00;100861.22;5042921;28;20055;-71
2022/10/17 01:24:13;;;;;;;10.88;8.88;;;;;;;13.43;100.00;100853.38;5041768;28;20311;-75
2022/10/17 01:26:42;;;;;;;10.45;8.70;;;;;;;13.29;100.00;100827.50;5045221;28;20695;-78
2022/10/17 01:29:12;;;;;;;9.95;8.13;;;;;;;13.30;100.00;100828.38;5048550;28;20127;-76
2022/10/17 01:32:04;;;;;;;11.63;8.70;;;;;;;13.43;100.00;100845.41;5048068;28;20072;-78
2022/10/17 01:34:38;;;;;;;10.95;8.48;;;;;;;13.41;100.00;100849.94;5043953;28;20264;-77
2022/10/17 01:37:20;;;;;;;11.95;7.90;;;;;;;13.40;100.00;100850.03;5044733;28;20055;-77
2022/10/17 01:40:16;;;;;;;13.13;9.40;;;;;;;13.35;100.00;100844.97;5044607;28;20045;-78
2022/10/17 01:43:01;;;;;;;16.58;9.50;;;;;;;13.32;100.00;100851.28;5043576;28;20053;-76
2022/10/17 01:45:35;;;;;;;11.15;8.80;;;;;;;13.23;100.00;100834.91;5045174;28;20049;-74
2022/10/17 01:48:08;;;;;;;12.95;8.75;;;;;;;13.17;100.00;100827.28;5042794;28;20053;-76
2022/10/17 01:50:40;;;;;;;10.40;8.75;;;;;;;13.27;100.00;100840.00;5048844;28;20060;-79
2022/10/17 01:53:13;;;;;;;9.38;8.38;;;;;;;13.25;100.00;100849.00;5045964;28;20041;-75
2022/10/17 01:55:43;;;;;;;10.48;9.07;;;;;;;13.19;100.00;100836.03;5050028;28;20121;-78
2022/10/17 01:58:15;;;;;;;11.35;9.32;;;;;;;13.07;100.00;100824.16;5042567;28;20525;-79
2022/10/17 02:00:44;;;;;;;11.65;8.05;;;;;;;13.15;100.00;100847.75;5042258;28;20128;-73
2022/10/17 02:03:16;;;;;;;11.85;9.02;;;;;;;12.97;100.00;100817.59;5047808;28;20055;-75
2022/10/17 02:05:43;;;;;;;13.25;9.88;;;;;;;13.08;100.00;100848.97;5042984;28;20051;-71
2022/10/17 02:08:11;;;;;;;14.25;8.90;;;;;;;12.96;100.00;100845.97;5040760;28;20104;-78
2022/10/17 02:10:54;;;;;;;12.32;9.18;;;;;;;12.97;100.00;100850.38;5045643;28;20049;-76
2022/10/17 02:13:30;;;;;;;11.65;8.65;;;;;;;12.92;100.00;100828.47;5045573;28;20145;-77
2022/10/17 02:16:34;;;;;;;11.48;8.30;;;;;;;13.03;100.00;100848.34;5046447;28;20056;-79
2022/10/17 02:19:13;;;;;;;12.32;8.13;;;;;;;12.97;100.00;100834.41;5040315;28;20049;-80
2022/10/17 02:21:50;;;;;;;8.90;8.00;;;;;;;12.99;100.00;100845.84;5042983;28;20053;-76
2022/10/17 02:24:30;;;;;;;15.07;8.77;;;;;;;12.93;100.00;100846.13;5047403;28;20048;-76
2022/10/17 02:27:10;;;;;;;11.38;7.85;;;;;;;12.90;100.00;100854.28;5043855;28;20417;-76
2022/10/17 02:29:47;;;;;;;11.98;8.75;;;;;;;12.76;100.00;100832.81;5042664;28;20057;-79
2022/10/17 02:32:25;;;;;;;10.25;8.25;;;;;;;12.82;100.00;100851.13;5042482;28;20053;-77
2022/10/17 02:34:57;;;;;;;11.95;8.15;;;;;;;12.70;100.00;100817.19;5043618;28;20057;-78
2022/10/17 02:37:27;;;;;;;9.43;7.88;;;;;;;12.85;100.00;100853.63;5041252;28;20148;-79
2022/10/17 02:39:58;;;;;;;10.07;7.88;;;;;;;12.83;100.00;100844.00;5046119;28;20051;-78
2022/10/17 02:42:26;;;;;;;10.63;8.32;;;;;;;12.81;100.00;100846.75;5042846;28;20050;-76
2022/10/17 02:44:56;;;;;;;11.35;8.32;;;;;;;12.81;100.00;100852.06;5040883;28;20072;-76
2022/10/17 02:47:33;;;;;;;11.15;8.50;;;;;;;12.81;100.00;100856.50;5046531;28;20627;-75
2022/10/17 02:50:00;;;;;;;10.13;7.93;;;;;;;12.71;100.00;100845.47;5048274;28;20045;-75
2022/10/17 02:52:47;;;;;;;11.20;8.35;;;;;;;12.68;100.00;100837.66;5047262;28;20056;-77
2022/10/17 02:55:32;;;;;;;11.48;8.32;;;;;;;12.82;100.00;100855.56;5055783;28;20049;-76
2022/10/17 02:58:04;;;;;;;10.60;8.10;;;;;;;12.77;100.00;100847.81;5047988;28;20049;-77
2022/10/17 03:00:31;;;;;;;12.65;8.48;;;;;;;12.84;100.00;100851.91;5045477;28;20123;-75
2022/10/17 03:02:58;;;;;;;10.65;7.90;;;;;;;12.87;100.00;100859.75;5050729;28;20045;-78
2022/10/17 03:05:27;;;;;;;11.30;8.40;;;;;;;12.83;100.00;100850.19;5050083;28;20124;-77
2022/10/17 03:07:55;;;;;;;10.60;8.40;;;;;;;12.94;100.00;100862.94;5046676;28;20049;-77
2022/10/17 03:10:22;;;;;;;10.27;7.82;;;;;;;12.96;100.00;100863.72;5046694;28;20078;-78
2022/10/17 03:12:49;;;;;;;10.18;7.55;;;;;;;12.91;100.00;100848.00;5051389;28;20063;-73
2022/10/17 03:15:15;;;;;;;11.60;8.23;;;;;;;12.88;100.00;100839.34;5049252;28;20057;-80
2022/10/17 03:17:42;;;;;;;8.57;7.30;;;;;;;12.95;100.00;100846.06;5049913;28;20041;-77
2022/10/17 03:20:09;;;;;;;10.40;7.55;;;;;;;12.88;100.00;100845.53;5049999;28;20153;-74
2022/10/17 03:22:35;;;;;;;10.77;7.50;;;;;;;13.00;100.00;100866.16;5049391;28;20037;-75
2022/10/17 03:25:02;;;;;;;9.25;7.13;;;;;;;13.00;100.00;100858.19;5048509;28;20151;-74
2022/10/17 03:27:29;;;;;;;9.88;6.95;;;;;;;12.89;100.00;100843.72;5051251;28;20390;-77
2022/10/17 03:29:56;;;;;;;10.18;7.30;;;;;;;12.99;100.00;100872.41;5051743;28;20072;-77
2022/10/17 03:32:22;;;;;;;8.40;7.03;;;;;;;12.98;100.00;100875.16;5056163;28;20643;-78
2022/10/17 03:34:49;;;;;;;9.60;7.38;;;;;;;12.90;100.00;100872.88;5049829;28;20041;-76
2022/10/17 03:37:16;;;;;;;10.55;7.20;;;;;;;12.90;100.00;100866.72;5052964;28;20381;-73
2022/10/17 03:39:42;;;;;;;9.13;7.10;;;;;;;12.88;100.00;100869.44;5066588;28;20052;-74
2022/10/17 03:42:09;;;;;;;11.40;7.35;;;;;;;12.93;100.00;100885.13;5064268;28;20044;-78
2022/10/17 03:44:35;;;;;;;9.63;7.15;;;;;;;12.93;100.00;100890.44;5054478;28;20059;-78
2022/10/17 03:47:02;;;;;;;9.82;7.35;;;;;;;12.79;100.00;100867.22;5047929;28;20591;-79
2022/10/17 03:49:28;;;;;;;11.02;6.85;;;;;;;12.87;100.00;100880.13;5051961;28;20056;-75
2022/10/17 03:51:55;;;;;;;7.78;6.88;;;;;;;12.77;100.00;100874.38;5044867;28;20070;-78
2022/10/17 03:54:21;;;;;;;8.52;6.80;;;;;;;12.77;100.00;100874.38;5049166;28;20060;-78
2022/10/17 03:56:48;;;;;;;8.05;6.72;;;;;;;12.90;100.00;100901.25;5044620;28;20042;-74
2022/10/17 03:59:15;;;;;;;12.77;7.47;;;;;;;12.78;100.00;100881.44;5045150;28;20132;-75
2022/10/17 04:01:42;;;;;;;7.43;6.55;;;;;;;12.74;100.00;100874.56;5045750;28;20128;-75
2022/10/17 04:04:09;;;;;;;10.25;6.63;;;;;;;12.88;100.00;100897.81;5043504;28;20123;-78
2022/10/17 04:06:36;;;;;;;10.57;7.20;;;;;;;12.88;100.00;100904.00;5047384;28;20056;-76
2022/10/17 04:09:04;;;;;;;7.63;6.88;;;;;;;12.89;100.00;100911.03;5045221;28;20053;-77
2022/10/17 04:11:31;;;;;;;9.05;6.57;;;;;;;12.88;100.00;100911.09;5049045;28;20571;-79
2022/10/17 04:14:01;;;;;;;9.05;7.53;;;;;;;12.84;100.00;100910.38;5029773;28;20053;-77
2022/10/17 04:16:28;;;;;;;9.95;8.10;;;;;;;12.77;100.00;100906.28;5043072;28;20147;-78
2022/10/17 04:18:56;;;;;;;10.48;8.00;;;;;;;12.81;100.00;100913.19;5047622;28;20048;-78
2022/10/17 04:21:24;;;;;;;11.68;7.57;;;;;;;12.80;100.00;100913.25;5043423;28;20056;-78
2022/10/17 04:23:55;;;;;;;10.75;7.25;;;;;;;12.79;100.00;100908.88;5041311;28;20692;-79
2022/10/17 04:26:22;;;;;;;8.55;7.65;;;;;;;12.76;100.00;100914.31;5039871;28;20045;-78
2022/10/17 04:28:49;;;;;;;13.00;7.70;;;;;;;12.63;100.00;100887.47;5050734;28;20045;-75
2022/10/17 04:31:17;;;;;;;13.02;8.65;;;;;;;12.72;100.00;100907.47;5045549;28;20045;-78
2022/10/17 04:33:46;;;;;;;9.35;7.78;;;;;;;12.71;100.00;100909.25;5043089;28;20045;-78
2022/10/17 04:36:18;;;;;;;10.65;7.60;;;;;;;12.69;100.00;100910.25;5048920;28;20387;-78
2022/10/17 04:38:45;;;;;;;12.32;7.35;;;;;;;12.72;100.00;100907.47;5043095;28;20067;-73
2022/10/17 04:41:15;;;;;;;9.27;7.65;;;;;;;12.75;100.00;100918.78;5044148;28;20238;-79
2022/10/17 04:43:42;;;;;;;;;;;;;;;12.73;100.00;100918.00;5048528;28;20049;-74
2022/10/17 04:46:15;;;;;;;10.23;7.90;;;;;;;12.69;100.00;100924.41;5064966;28;19924;-71
2022/10/17 04:48:42;;;;;;;9.32;7.60;;;;;;;12.55;100.00;100897.63;5045366;28;20075;-76
2022/10/17 04:51:17;;;;;;;9.63;7.75;;;;;;;12.66;100.00;100916.56;5044570;28;20516;-78
2022/10/17 04:53:48;;;;;;;11.70;7.75;;;;;;;12.52;100.00;100903.94;5046126;28;20045;-77
2022/10/17 04:56:18;;;;;;;13.30;8.18;;;;;;;12.60;100.00;100906.22;5046576;28;20053;-79
2022/10/17 04:58:46;;;;;;;9.88;7.57;;;;;;;12.60;100.00;100916.84;5046267;28;20067;-76
2022/10/17 05:01:16;;;;;;;10.25;7.97;;;;;;;12.50;100.00;100900.50;5040417;28;20049;-79
2022/10/17 05:03:43;;;;;;;12.10;7.80;;;;;;;12.49;100.00;100903.22;5048660;28;20071;-74
2022/10/17 05:06:15;;;;;;;15.10;7.30;;;;;;;12.54;100.00;100920.66;5037178;28;20425;-77
2022/10/17 05:08:41;;;;;;;9.02;7.05;;;;;;;12.54;100.00;100933.09;5044122;28;20037;-79
2022/10/17 05:11:20;;;;;;;12.40;7.50;;;;;;;12.52;100.00;100929.63;5044651;28;20049;-79
2022/10/17 05:13:54;;;;;;;12.02;7.47;;;;;;;12.50;100.00;100936.81;5044983;28;20059;-75
2022/10/17 05:16:22;;;;;;;9.90;7.88;;;;;;;12.47;100.00;100948.44;5043949;28;20059;-79
2022/10/17 05:18:51;;;;;;;32.90;22.58;;;;;;;12.44;100.00;100940.59;5043539;28;20046;-75
2022/10/17 05:21:19;;;;;;;14.15;10.07;;;;;;;12.43;100.00;100946.88;5040715;28;20287;-79
2022/10/17 05:23:46;;;;;;;11.98;8.07;;;;;;;12.40;100.00;100939.03;5043584;28;20053;-77
2022/10/17 05:26:13;;;;;;;11.68;7.55;;;;;;;12.38;100.00;100934.72;5047653;28;20132;-79
2022/10/17 05:28:40;;;;;;;8.63;7.70;;;;;;;12.35;100.00;100930.41;5044719;28;20049;-78
2022/10/17 05:31:09;;;;;;;10.48;7.70;;;;;;;12.27;100.00;100906.88;5044418;28;20040;-79
2022/10/17 05:33:38;;;;;;;13.70;7.85;;;;;;;12.30;100.00;100913.81;5041327;28;20058;-77
2022/10/17 05:36:06;;;;;;;9.70;6.88;;;;;;;12.30;100.00;100921.78;5043713;28;20049;-79
2022/10/17 05:38:32;;;;;;;10.23;7.22;;;;;;;12.36;100.00;100928.63;5047519;28;20056;-75
2022/10/17 05:41:01;;;;;;;9.40;7.30;;;;;;;12.18;100.00;100915.25;5049110;28;20047;-75
2022/10/17 05:43:28;;;;;;;10.52;7.28;;;;;;;12.33;100.00;100939.38;5041849;28;20053;-77
2022/10/17 05:45:55;;;;;;;9.00;6.93;;;;;;;12.28;100.00;100937.78;5044886;28;20148;-76
2022/10/17 05:48:22;;;;;;;13.57;7.32;;;;;;;12.18;100.00;100914.38;5047240;28;20053;-78
2022/10/17 05:50:49;;;;;;;12.90;8.30;;;;;;;12.33;100.00;100945.56;5028901;28;20052;-72
2022/10/17 05:53:16;;;;;;;13.75;8.23;;;;;;;12.33;100.00;100944.69;5028707;28;20053;-77
2022/10/17 05:55:42;;;;;;;10.30;7.97;;;;;;;12.34;100.00;100943.75;5048113;28;20068;-74
2022/10/17 05:58:09;;;;;;;12.95;8.48;;;;;;;12.24;100.00;100922.09;5031121;28;20045;-76
2022/10/17 06:00:47;;;;;;;18.90;8.57;;;;;;;12.21;100.00;100915.13;5045129;28;20045;-74
2022/10/17 06:03:14;;;;;;;13.65;8.57;;;;;;;12.31;100.00;100931.47;5052241;28;20041;-76
2022/10/17 06:05:41;;;;;;;10.10;7.80;;;;;;;12.41;100.00;100943.44;5046262;28;20057;-78
2022/10/17 06:08:07;;;;;;;10.90;8.40;;;;;;;12.47;100.00;100944.91;5046158;28;20053;-78
2022/10/17 06:10:34;;;;;;;9.48;7.40;;;;;;;12.38;100.00;100929.41;5041860;28;20049;-76
2022/10/17 06:13:00;;;;;;;11.10;7.50;;;;;;;12.55;100.00;100950.75;5046079;28;20057;-76
2022/10/17 06:15:27;;;;;;;10.75;7.97;;;;;;;12.61;100.00;100955.78;5047311;28;20049;-77
2022/10/17 06:17:54;;;;;;;12.13;8.45;;;;;;;12.54;100.00;100936.59;5044095;28;20041;-75
2022/10/17 06:20:20;;;;;;;13.25;9.45;;;;;;;12.71;100.00;100956.22;5040083;28;20057;-73
2022/10/17 06:22:47;;;;;;;12.55;7.65;;;;;;;12.78;100.00;100961.16;5041895;28;20102;-77
2022/10/17 06:25:13;;;;;;;10.98;7.63;;;;;;;12.78;100.00;100958.50;5048766;28;20152;-80
2022/10/17 06:27:40;;;;;;;12.38;7.97;;;;;;;12.84;100.00;100960.03;5044944;28;20045;-81
2022/10/17 06:30:07;;;;;;;12.15;8.48;;;;;;;12.92;100.00;100964.03;5046180;28;20060;-78
2022/10/17 06:32:34;;;;;;;11.43;8.57;;;;;;;12.88;100.00;100954.50;5047694;28;20492;-78
2022/10/17 06:35:00;;;;;;;12.38;8.05;;;;;;;13.08;100.00;100969.47;5057174;28;20064;-71
2022/10/17 06:37:31;;;;;;;12.18;7.68;;;;;;;13.14;100.00;100974.50;5065225;28;20051;-76
2022/10/17 06:40:03;;;;;;;10.95;7.78;;;;;;;13.21;100.00;100972.44;5043683;28;20422;-72
2022/10/17 06:42:29;;;;;;;10.40;8.50;;;;;;;13.23;100.00;100971.41;5051535;28;20041;-75
2022/10/17 06:44:56;;;;;;;9.68;8.13;;;;;;;13.29;100.00;100964.94;5047500;28;20247;-79
2022/10/17 06:47:23;;;;;;;11.57;8.77;;;;;;;13.32;100.00;100975.44;5048604;28;20056;-73
2022/10/17 06:49:49;;;;;;;16.98;10.80;;;;;;;13.29;100.00;100965.81;5042068;28;20060;-79
2022/10/17 06:52:16;;;;;;;13.80;9.88;;;;;;;13.33;100.00;100971.84;5040764;28;20055;-79
2022/10/17 06:54:43;;;;;;;13.75;9.95;;;;;;;13.36;100.00;100965.53;5038906;28;20136;-72
2022/10/17 06:57:09;;;;;;;17.02;11.40;;;;;;;13.46;100.00;100975.63;5040430;28;20057;-76
2022/10/17 06:59:36;;;;;;;14.50;10.10;;;;;;;13.58;100.00;100993.63;5037827;28;20041;-77
2022/10/17 07:02:04;;;;;;;12.18;9.10;;;;;;;13.62;100.00;100995.22;5045430;28;20412;-75
2022/10/17 07:04:31;;;;;;;16.02;9.60;;;;;;;13.58;100.00;100977.66;5043177;28;20059;-76
2022/10/17 07:06:57;;;;;;;25.20;9.32;;;;;;;13.79;100.00;100998.81;5048451;28;20063;-77
2022/10/17 07:09:30;;;;;;;10.68;8.52;;;;;;;13.88;100.00;100996.53;5048460;28;20045;-77
2022/10/17 07:11:57;;;;;;;13.90;8.35;;;;;;;13.94;100.00;100974.06;5048309;28;20063;-75
2022/10/17 07:14:30;;;;;;;13.55;8.55;;;;;;;14.25;100.00;100999.97;5046830;28;20052;-73
2022/10/17 07:16:58;;;;;;;14.25;9.43;;;;;;;14.39;100.00;100984.97;5047769;28;20112;-79
2022/10/17 07:19:25;;;;;;;14.45;8.82;;;;;;;14.69;100.00;100994.94;5044304;28;20056;-77
2022/10/17 07:21:53;;;;;;;17.85;9.85;;;;;;;14.82;100.00;100996.00;5042428;28;20053;-77
2022/10/17 07:24:19;;;;;;;14.88;8.10;;;;;;;14.98;100.00;100999.53;5056578;28;20112;-71
2022/10/17 07:26:46;;;;;;;15.30;8.52;;;;;;;15.18;100.00;101011.78;5048860;28;20045;-76
2022/10/17 07:29:13;;;;;;;11.93;7.88;;;;;;;15.32;100.00;101011.00;5058125;28;20477;-77
2022/10/17 07:31:39;;;;;;;14.23;7.97;;;;;;;15.58;100.00;101018.41;5053361;28;20164;-77
2022/10/17 07:34:06;;;;;;;14.15;7.93;;;;;;;15.77;100.00;101024.38;5053893;28;20571;-79
2022/10/17 07:36:32;;;;;;;13.90;8.65;;;;;;;15.75;100.00;101012.94;5052704;28;20059;-76
2022/10/17 07:38:59;;;;;;;14.40;8.93;;;;;;;16.01;100.00;101029.25;5048155;28;20067;-80
2022/10/17 07:41:26;;;;;;;13.60;9.85;;;;;;;16.22;100.00;101030.63;5046559;28;20059;-74
2022/10/17 07:43:53;;;;;;;15.52;8.18;;;;;;;16.29;100.00;101031.13;5045390;28;20278;-73
2022/10/17 07:46:19;;;;;;;13.60;7.45;;;;;;;16.37;100.00;101029.69;5042026;28;20136;-73
2022/10/17 07:48:46;;;;;;;13.48;7.40;;;;;;;16.41;100.00;101041.06;5042681;28;20045;-73
2022/10/17 07:51:12;;;;;;;16.60;8.13;;;;;;;16.24;100.00;101006.47;5039374;28;20048;-72
2022/10/17 07:53:39;;;;;;;14.48;7.50;;;;;;;16.37;100.00;101031.53;5036895;28;20052;-74
2022/10/17 07:56:10;;;;;;;12.18;6.65;;;;;;;16.45;100.00;101050.63;5042607;28;20041;-78
2022/10/17 07:58:37;;;;;;;13.77;7.05;;;;;;;16.60;100.00;101036.31;5046013;28;20141;-72
2022/10/17 08:01:07;;;;;;;19.45;8.88;;;;;;;16.78;100.00;101018.28;5041697;28;20679;-76
2022/10/17 08:03:41;;;;;;;12.18;6.93;;;;;;;17.06;100.00;101033.44;5046943;28;20473;-73
2022/10/17 08:06:08;;;;;;;10.73;7.20;;;;;;;17.23;100.00;101029.69;5039623;28;20489;-77
2022/10/17 08:08:34;;;;;;;10.20;6.95;;;;;;;17.41;100.00;101041.91;5040638;28;20517;-74
2022/10/17 08:11:06;;;;;;;16.00;6.90;;;;;;;17.50;100.00;101038.59;5038779;28;20390;-74
2022/10/17 08:13:34;;;;;;;14.32;7.25;;;;;;;17.60;100.00;101042.41;5038577;28;20044;-77
2022/10/17 08:16:03;;;;;;;12.07;8.05;;;;;;;17.65;100.00;101018.88;5044586;28;20045;-77
2022/10/17 08:18:30;;;;;;;12.13;7.13;;;;;;;18.02;100.00;101025.31;5043842;28;20050;-76
2022/10/17 08:21:02;;;;;;;13.18;6.82;;;;;;;18.14;100.00;101023.59;5047488;28;20045;-75
2022/10/17 08:23:28;;;;;;;15.35;8.05;;;;;;;18.02;100.00;101003.88;5041607;28;20604;-74
2022/10/17 08:25:59;;;;;;;8.88;5.88;;;;;;;18.00;100.00;101023.69;5047262;28;20056;-73
2022/10/17 08:28:25;;;;;;;;;;;;;;;17.83;100.00;101033.72;5049604;28;20045;-69
2022/10/17 08:30:52;;;;;;;17.63;7.38;;;;;;;17.69;100.00;101035.59;5042015;28;19921;-73
2022/10/17 08:33:19;;;;;;;11.45;7.13;;;;;;;17.51;100.00;101045.69;5041966;28;20056;-75
2022/10/17 08:35:45;;;;;;;10.23;7.00;;;;;;;17.38;100.00;101050.97;5042347;28;20052;-72
2022/10/17 08:38:12;;;;;;;11.65;7.32;;;;;;;17.34;100.00;101040.56;5047551;28;20063;-75
2022/10/17 08:40:41;;;;;;;8.20;6.05;;;;;;;17.37;100.00;101049.25;5045081;28;20067;-74
2022/10/17 08:43:23;;;;;;;17.67;7.97;;;;;;;17.43;100.00;101048.00;5052129;28;20468;-71
2022/10/17 08:45:59;;;;;;;9.07;6.85;;;;;;;17.44;100.00;101049.72;5042497;28;20056;-74
2022/10/17 08:48:30;;;;;;;8.10;5.78;;;;;;;17.41;100.00;101029.38;5047885;28;20621;-75
2022/10/17 08:51:11;;;;;;;8.95;6.32;;;;;;;17.61;100.00;101040.59;5043551;28;20045;-75
2022/10/17 08:53:46;;;;;;;11.60;6.45;;;;;;;17.67;100.00;101032.16;5049480;28;20053;-75
2022/10/17 08:56:18;;;;;;;11.02;6.40;;;;;;;17.77;100.00;101035.97;5054424;28;20059;-75
2022/10/17 08:58:51;;;;;;;8.48;6.40;;;;;;;17.91;100.00;101037.72;5056884;28;20047;-78
2022/10/17 09:01:30;;;;;;;7.00;5.80;;;;;;;17.93;100.00;101020.59;5048424;28;20052;-78
2022/10/17 09:04:06;;;;;;;11.05;5.63;;;;;;;18.14;100.00;101037.88;5047130;28;20635;-78
2022/10/17 09:06:50;;;;;;;10.55;5.40;;;;;;;18.22;100.00;101042.72;5039725;28;20155;-76
2022/10/17 09:09:43;;;;;;;11.27;5.55;;;;;;;18.33;100.00;101044.66;5046270;28;20047;-78
2022/10/17 09:12:48;;;;;;;11.65;5.50;;;;;;;18.41;99.20;101036.94;5042112;28;20500;-73
2022/10/17 09:15:41;;;;;;;7.53;5.25;;;;;;;18.50;97.77;101041.66;5042564;28;20048;-73
2022/10/17 09:18:25;;;;;;;10.23;5.43;;;;;;;18.52;96.32;101045.97;5041146;28;20048;-72
2022/10/17 09:21:09;;;;;;;6.22;4.70;;;;;;;18.54;96.11;101051.22;5031440;28;20540;-74
2022/10/17 09:23:46;;;;;;;10.10;4.75;;;;;;;18.48;94.80;101041.78;5042463;28;20052;-76
2022/10/17 09:26:13;;;;;;;6.20;4.72;;;;;;;18.54;94.92;101035.13;5037044;28;20107;-75
2022/10/17 09:28:41;;;;;;;7.97;4.95;;;;;;;18.65;94.89;101051.34;5032736;28;20053;-75
2022/10/17 09:31:19;;;;;;;11.13;5.18;;;;;;;18.75;94.07;101056.91;5044907;28;20049;-77
2022/10/17 09:33:47;;;;;;;7.53;4.47;;;;;;;18.93;92.98;101055.63;5037988;28;20061;-74
2022/10/17 09:36:28;;;;;;;17.00;8.30;;;;;;;19.00;92.88;101054.22;5046566;28;20455;-79
2022/10/17 09:38:57;;;;;;;8.35;4.97;;;;;;;18.96;92.03;101058.09;5041706;28;20055;-78
2022/10/17 09:41:48;;;;;;;9.93;5.05;;;;;;;18.84;92.56;101061.66;5044146;28;20053;-73
2022/10/17 09:44:24;;;;;;;7.60;4.63;;;;;;;18.79;92.97;101063.78;5041774;28;20057;-78
2022/10/17 09:47:17;;;;;;;9.20;5.32;;;;;;;18.79;93.12;101053.91;5040940;28;20047;-79
2022/10/17 09:49:45;;;;;;;6.65;4.57;;;;;;;18.87;92.22;101066.81;5042093;28;20053;-77
2022/10/17 09:52:17;;;;;;;9.55;4.60;;;;;;;18.72;93.05;101049.13;5040995;28;20040;-72
2022/10/17 09:54:48;;;;;;;12.10;4.68;;;;;;;18.96;93.72;101070.66;5037638;28;20127;-75
2022/10/17 09:57:17;;;;;;;6.68;4.63;;;;;;;19.13;92.56;101073.84;5037690;28;20045;-75
2022/10/17 09:59:45;;;;;;;8.90;5.00;;;;;;;19.16;90.04;101070.94;5039985;28;20049;-76
2022/10/17 10:02:11;;;;;;;10.75;6.07;;;;;;;19.13;90.20;101075.69;5043511;28;20453;-76
2022/10/17 10:04:53;;;;;;;11.57;5.38;;;;;;;19.01;91.02;101065.81;5052067;28;20049;-75
2022/10/17 10:07:37;;;;;;;7.60;4.72;;;;;;;19.07;91.54;101090.38;5042354;28;20060;-74
2022/10/17 10:10:07;;;;;;;7.60;4.97;;;;;;;19.20;91.27;101091.22;5046198;28;20144;-75
2022/10/17 10:12:37;;;;;;;10.43;4.93;;;;;;;19.39;91.01;101079.16;5040579;28;20041;-75
2022/10/17 10:15:32;;;;;;;7.53;4.97;;;;;;;19.59;88.88;101070.53;5044742;28;20494;-75
2022/10/17 10:17:59;;;;;;;15.30;5.22;;;;;;;19.77;87.89;101066.47;5006646;28;20060;-71
2022/10/17 10:20:34;;;;;;;7.80;5.07;;;;;;;19.82;85.58;101074.22;5046006;28;20055;-72
2022/10/17 10:23:16;;;;;;;6.60;4.38;;;;;;;19.87;85.91;101077.38;5047053;28;20120;-77
2022/10/17 10:26:20;;;;;;;6.88;4.22;;;;;;;20.08;84.22;101093.75;5046370;28;20045;-74
2022/10/17 10:29:00;;;;;;;7.10;4.57;;;;;;;19.93;82.77;101069.72;5023272;28;20053;-74
2022/10/17 10:31:34;;;;;;;9.75;4.90;;;;;;;19.93;82.36;101079.63;5043719;28;20106;-74
2022/10/17 10:34:17;;;;;;;8.27;4.45;;;;;;;19.82;83.18;101072.38;5044307;28;20084;-75
2022/10/17 10:37:01;;;;;;;7.10;4.32;;;;;;;19.79;82.76;101061.00;5041395;28;20561;-72
2022/10/17 10:39:46;;;;;;;9.95;4.65;;;;;;;19.92;82.14;101080.59;5045474;28;20110;-75
2022/10/17 10:42:33;;;;;;;9.57;4.72;;;;;;;19.92;82.65;101078.78;5043125;28;20056;-74
2022/10/17 10:45:22;;;;;;;16.48;6.28;;;;;;;19.95;82.86;101088.44;5042680;28;20397;-74
2022/10/17 10:48:21;;;;;;;6.50;5.05;;;;;;;19.93;83.16;101064.34;5044672;28;20041;-72
2022/10/17 10:50:53;;;;;;;7.40;3.92;;;;;;;20.25;82.47;101078.03;5045859;28;20428;-76
2022/10/17 10:53:42;;;;;;;10.57;4.28;;;;;;;20.45;80.97;101067.63;5042692;28;20539;-74
2022/10/17 10:56:24;;;;;;;6.97;4.70;;;;;;;20.76;79.70;101076.84;5038065;28;20037;-73
2022/10/17 10:58:59;;;;;;;6.80;3.97;;;;;;;20.81;78.01;101061.16;5038599;28;20044;-71
2022/10/17 11:01:46;;;;;;;8.07;3.67;;;;;;;20.74;78.48;101059.97;5042260;28;20057;-74
2022/10/17 11:04:19;;;;;;;8.65;3.95;;;;;;;20.89;77.77;101077.59;5043125;28;20052;-75
2022/10/17 11:06:48;;;;;;;6.28;4.55;;;;;;;20.98;77.45;101082.22;5041660;28;20099;-72
2022/10/17 11:09:27;;;;;;;7.85;3.67;;;;;;;21.01;76.54;101085.53;5044933;28;20055;-73
2022/10/17 11:12:06;;;;;;;8.40;4.40;;;;;;;21.15;76.14;101081.75;5039583;28;20508;-73
2022/10/17 11:14:50;;;;;;;5.78;4.45;;;;;;;21.22;75.78;101061.47;5026516;28;20057;-74
2022/10/17 11:17:41;;;;;;;5.47;3.72;;;;;;;21.54;74.96;101080.41;5039279;28;20052;-72
2022/10/17 11:20:08;;;;;;;13.88;4.25;;;;;;;21.57;74.61;101071.19;5045530;28;20041;-75
2022/10/17 11:22:43;;;;;;;5.45;3.70;;;;;;;21.54;74.67;101066.91;5041820;28;20060;-75
2022/10/17 11:25:21;;;;;;;5.85;3.92;;;;;;;21.61;74.83;101084.28;5044013;28;20144;-72
2022/10/17 11:27:48;;;;;;;8.88;4.60;;;;;;;21.57;74.62;101096.28;5036715;28;20049;-72
2022/10/17 11:30:15;;;;;;;4.30;3.63;;;;;;;21.54;75.60;101087.63;5036434;28;20068;-73
2022/10/17 11:32:44;;;;;;;8.25;4.70;;;;;;;21.54;75.19;101076.84;5038764;28;20045;-74
2022/10/17 11:35:23;;;;;;;11.07;4.65;;;;;;;21.79;74.38;101081.91;5042408;28;20580;-76